Time;durP1;ratioP1;P1;durP2;ratioP2;P2;SDS_P1;SDS_P2;PMS_P1;PMS_P2;Temp;Humidity;BMP_temperature;BMP_pressure;BME280_temperature;BME280_humidity;BME280_pressure;Samples;Min_cycle;Max_cycle;Signal;HPM_P1;HPM_P2
2022/06/05 00:01:08;;;;;;;4.42;2.83;;;;;;;;;;1784380;80;21020;-72
2022/06/05 00:03:36;;;;;;;3.02;2.70;;;;;;;;;;1783971;79;21043;-72
2022/06/05 00:06:04;;;;;;;3.65;2.70;;;;;;;;;;1783963;80;21115;-72
2022/06/05 00:08:49;;;;;;;4.70;2.80;;;;;;;;;;1784184;80;21171;-72
2022/06/05 00:11:15;;;;;;;3.87;2.92;;;;;;;;;;1784429;80;21056;-72
2022/06/05 00:13:46;;;;;;;4.20;2.85;;;;;;;;;;1783987;80;20997;-72
2022/06/05 00:16:12;;;;;;;3.10;2.58;;;;;;;;;;1784232;80;21024;-72
2022/06/05 00:18:42;;;;;;;4.08;2.60;;;;;;;;;;1784262;80;21029;-72
2022/06/05 00:21:08;;;;;;;3.40;2.72;;;;;;;;;;1784396;80;21515;-72
2022/06/05 00:23:34;;;;;;;4.08;2.58;;;;;;;;;;1784243;80;21047;-72
2022/06/05 00:26:14;;;;;;;2.83;2.45;;;;;;;;;;1784283;80;21032;-72
2022/06/05 00:28:49;;;;;;;3.72;2.60;;;;;;;;;;1783954;80;21626;-72
2022/06/05 00:31:30;;;;;;;3.65;2.45;;;;;;;;;;1783903;80;21544;-72
2022/06/05 00:33:57;;;;;;;2.98;2.40;;;;;;;;;;1784113;80;21582;-72
2022/06/05 00:36:25;;;;;;;3.92;2.60;;;;;;;;;;1784176;80;21551;-73
2022/06/05 00:39:02;;;;;;;3.42;2.72;;;;;;;;;;1778830;80;21048;-72
2022/06/05 00:41:30;;;;;;;3.52;2.60;;;;;;;;;;1784107;80;21042;-72
2022/06/05 00:43:58;;;;;;;4.35;2.70;;;;;;;;;;1784044;80;21052;-72
2022/06/05 00:46:24;;;;;;;2.70;2.33;;;;;;;;;;1784175;80;22071;-72
2022/06/05 00:48:50;;;;;;;3.95;2.55;;;;;;;;;;1783889;80;21615;-71
2022/06/05 00:51:16;;;;;;;3.22;2.40;;;;;;;;;;1784246;80;21056;-71
2022/06/05 00:53:42;;;;;;;3.10;2.40;;;;;;;;;;1784134;80;21001;-72
2022/06/05 00:56:09;;;;;;;2.85;2.50;;;;;;;;;;1784289;80;21551;-72
2022/06/05 00:58:35;;;;;;;2.33;2.12;;;;;;;;;;1784823;80;20976;-72
2022/06/05 01:03:50;;;;;;;3.72;2.60;;;;;;;;;;1719559;80;74712;-78
2022/06/05 01:06:16;;;;;;;4.00;2.58;;;;;;;;;;1724012;82;21045;-77
2022/06/05 01:08:44;;;;;;;3.52;2.75;;;;;;;;;;1696619;83;21122;-77
2022/06/05 01:11:24;;;;;;;4.40;2.60;;;;;;;;;;1668484;86;21434;-77
2022/06/05 01:13:58;;;;;;;3.75;2.40;;;;;;;;;;1682088;84;21579;-77
2022/06/05 01:16:38;;;;;;;5.70;3.22;;;;;;;;;;1700006;84;21091;-77
2022/06/05 01:19:12;;;;;;;3.50;2.83;;;;;;;;;;1695105;84;21088;-77
2022/06/05 01:21:44;;;;;;;4.55;3.00;;;;;;;;;;1692101;84;21073;-76
2022/06/05 01:24:18;;;;;;;4.70;3.15;;;;;;;;;;1699349;84;21046;-77
2022/06/05 01:26:46;;;;;;;3.95;3.05;;;;;;;;;;1700049;84;21021;-77
2022/06/05 01:29:15;;;;;;;4.22;2.92;;;;;;;;;;1699323;84;21035;-77
2022/06/05 01:31:50;;;;;;;4.50;3.10;;;;;;;;;;1688382;84;21072;-77
2022/06/05 01:34:29;;;;;;;6.22;3.33;;;;;;;;;;1692607;85;21034;-77
2022/06/05 01:37:07;;;;;;;3.95;2.92;;;;;;;;;;1692475;85;21100;-77
2022/06/05 01:39:44;;;;;;;4.47;3.02;;;;;;;;;;1698803;84;21579;-77
2022/06/05 01:42:14;;;;;;;4.12;2.98;;;;;;;;;;1699052;84;21123;-77
2022/06/05 01:44:41;;;;;;;3.92;3.45;;;;;;;;;;1688516;84;21049;-77
2022/06/05 01:47:08;;;;;;;3.83;2.98;;;;;;;;;;1699378;83;21575;-77
2022/06/05 01:49:42;;;;;;;3.65;2.98;;;;;;;;;;1674475;85;21529;-77
2022/06/05 01:52:10;;;;;;;4.05;2.90;;;;;;;;;;1688007;84;21021;-77
2022/06/05 01:54:38;;;;;;;4.70;3.10;;;;;;;;;;1676322;84;21229;-77
2022/06/05 01:57:05;;;;;;;5.00;3.00;;;;;;;;;;1699896;84;21282;-77
2022/06/05 01:59:33;;;;;;;4.00;2.92;;;;;;;;;;1698551;84;21085;-77
2022/06/05 02:02:01;;;;;;;4.35;2.87;;;;;;;;;;1704673;84;21053;-77
2022/06/05 02:04:32;;;;;;;3.47;2.77;;;;;;;;;;1696574;83;21613;-77
2022/06/05 02:06:59;;;;;;;3.80;2.70;;;;;;;;;;1684688;85;21043;-77
2022/06/05 02:09:39;;;;;;;3.02;2.62;;;;;;;;;;1721860;83;21014;-77
2022/06/05 02:12:06;;;;;;;3.20;2.70;;;;;;;;;;1721930;83;21017;-77
2022/06/05 02:14:32;;;;;;;3.83;2.90;;;;;;;;;;1721537;83;21045;-78
2022/06/05 02:16:59;;;;;;;3.67;2.77;;;;;;;;;;1721902;83;21124;-78
2022/06/05 02:19:25;;;;;;;4.40;2.90;;;;;;;;;;1721649;83;21556;-76
2022/06/05 02:21:51;;;;;;;5.42;3.15;;;;;;;;;;1721936;83;21029;-77
2022/06/05 02:24:17;;;;;;;5.15;3.00;;;;;;;;;;1721838;83;21585;-77
2022/06/05 02:26:43;;;;;;;3.33;2.90;;;;;;;;;;1721646;83;21019;-77
2022/06/05 02:29:11;;;;;;;4.05;2.90;;;;;;;;;;1721743;83;20975;-77
2022/06/05 02:31:42;;;;;;;6.67;2.80;;;;;;;;;;1721481;83;21100;-77
2022/06/05 02:34:16;;;;;;;3.35;2.72;;;;;;;;;;1713957;83;21053;-79
2022/06/05 02:37:03;;;;;;;3.52;2.60;;;;;;;;;;1721312;83;21116;-76
2022/06/05 02:39:31;;;;;;;3.00;2.35;;;;;;;;;;1721632;83;21001;-77
2022/06/05 02:41:59;;;;;;;2.92;2.30;;;;;;;;;;1721581;83;21089;-77
2022/06/05 02:44:31;;;;;;;3.12;2.50;;;;;;;;;;1721670;83;21072;-77
2022/06/05 02:47:09;;;;;;;3.40;2.70;;;;;;;;;;1721493;83;21052;-77
2022/06/05 02:49:36;;;;;;;3.42;2.47;;;;;;;;;;1721684;83;21013;-77
2022/06/05 02:52:04;;;;;;;3.83;2.52;;;;;;;;;;1721906;83;21017;-77
2022/06/05 02:54:30;;;;;;;3.75;2.50;;;;;;;;;;1721809;83;21016;-76
2022/06/05 02:56:56;;;;;;;3.12;2.37;;;;;;;;;;1721789;83;21041;-77
2022/06/05 02:59:24;;;;;;;3.12;2.42;;;;;;;;;;1695353;83;21467;-77
2022/06/05 03:04:35;;;;;;;3.25;2.30;;;;;;;;;;1724399;82;21120;-76
2022/06/05 03:07:03;;;;;;;3.58;2.25;;;;;;;;;;1729288;83;21073;-77
2022/06/05 03:09:29;;;;;;;4.85;2.67;;;;;;;;;;1728898;83;21128;-77
2022/06/05 03:11:55;;;;;;;3.33;2.55;;;;;;;;;;1728959;83;21568;-77
2022/06/05 03:14:21;;;;;;;4.03;2.60;;;;;;;;;;1729122;83;21550;-75
2022/06/05 03:16:48;;;;;;;5.75;2.40;;;;;;;;;;1729010;83;21045;-76
2022/06/05 03:19:16;;;;;;;3.00;2.70;;;;;;;;;;1729271;83;21072;-76
2022/06/05 03:21:42;;;;;;;2.95;2.33;;;;;;;;;;1729301;83;21064;-76
2022/06/05 03:24:09;;;;;;;2.40;2.20;;;;;;;;;;1728453;83;21547;-76
2022/06/05 03:26:35;;;;;;;2.67;2.40;;;;;;;;;;1729276;83;21033;-76
2022/06/05 03:29:02;;;;;;;2.65;2.12;;;;;;;;;;1729411;83;21465;-76
2022/06/05 03:31:29;;;;;;;3.62;2.30;;;;;;;;;;1729173;83;21033;-76
2022/06/05 03:33:55;;;;;;;3.02;2.40;;;;;;;;;;1729273;83;21611;-76
2022/06/05 03:36:21;;;;;;;3.35;2.40;;;;;;;;;;1729322;83;21076;-76
2022/06/05 03:38:47;;;;;;;3.35;2.40;;;;;;;;;;1720093;83;21548;-77
2022/06/05 03:41:15;;;;;;;3.47;2.55;;;;;;;;;;1729045;83;21029;-76
2022/06/05 03:43:41;;;;;;;2.95;2.10;;;;;;;;;;1729066;83;21516;-77
2022/06/05 03:46:08;;;;;;;4.03;2.42;;;;;;;;;;1729087;83;21602;-78
2022/06/05 03:48:34;;;;;;;3.80;2.47;;;;;;;;;;1729198;83;21021;-76
2022/06/05 03:51:02;;;;;;;2.98;2.35;;;;;;;;;;1728916;83;21021;-76
2022/06/05 03:53:28;;;;;;;4.87;2.30;;;;;;;;;;1728480;83;20994;-76
2022/06/05 03:55:54;;;;;;;3.80;2.50;;;;;;;;;;1729133;83;21516;-76
2022/06/05 03:58:23;;;;;;;2.95;2.20;;;;;;;;;;1728993;83;21115;-76
2022/06/05 04:00:51;;;;;;;4.08;2.35;;;;;;;;;;1729124;83;21522;-76
2022/06/05 04:03:17;;;;;;;5.28;2.22;;;;;;;;;;1729146;81;21080;-77
2022/06/05 04:05:44;;;;;;;4.08;2.40;;;;;;;;;;1738180;82;21127;-77
2022/06/05 04:08:14;;;;;;;2.70;2.20;;;;;;;;;;1742486;82;21051;-76
2022/06/05 04:10:40;;;;;;;3.47;2.60;;;;;;;;;;1742049;82;21102;-76
2022/06/05 04:13:07;;;;;;;3.65;2.37;;;;;;;;;;1742593;82;21527;-77
2022/06/05 04:15:39;;;;;;;2.77;2.05;;;;;;;;;;1742350;82;21063;-76
2022/06/05 04:18:06;;;;;;;2.87;2.08;;;;;;;;;;1742390;82;21075;-75
2022/06/05 04:20:34;;;;;;;4.45;2.35;;;;;;;;;;1742398;82;21032;-76
2022/06/05 04:23:02;;;;;;;3.72;2.33;;;;;;;;;;1742281;82;21103;-77
2022/06/05 04:25:28;;;;;;;3.47;2.30;;;;;;;;;;1729589;82;21020;-77
2022/06/05 04:27:56;;;;;;;2.77;2.20;;;;;;;;;;1742421;82;21056;-78
2022/06/05 04:30:25;;;;;;;4.97;2.10;;;;;;;;;;1742603;82;21060;-77
2022/06/05 04:32:52;;;;;;;2.67;2.15;;;;;;;;;;1742930;82;21484;-77
2022/06/05 04:35:19;;;;;;;2.15;1.95;;;;;;;;;;1742347;82;21071;-77
2022/06/05 04:37:45;;;;;;;3.30;2.20;;;;;;;;;;1742687;82;21044;-77
2022/06/05 04:40:11;;;;;;;4.28;2.17;;;;;;;;;;1742642;82;21115;-77
2022/06/05 04:42:37;;;;;;;2.37;1.98;;;;;;;;;;1742807;82;21016;-78
2022/06/05 04:45:03;;;;;;;2.98;2.05;;;;;;;;;;1742520;82;21622;-78
2022/06/05 04:47:29;;;;;;;2.72;2.00;;;;;;;;;;1742429;82;21076;-78
2022/06/05 04:49:56;;;;;;;3.25;2.22;;;;;;;;;;1742382;82;21032;-76
2022/06/05 04:52:22;;;;;;;5.40;2.35;;;;;;;;;;1742627;82;21065;-76
2022/06/05 04:54:48;;;;;;;6.92;2.20;;;;;;;;;;1742411;82;21031;-78
2022/06/05 04:57:14;;;;;;;3.47;2.20;;;;;;;;;;1742588;82;21064;-77
2022/06/05 04:59:40;;;;;;;3.02;2.40;;;;;;;;;;1742546;82;21535;-77
2022/06/05 05:02:06;;;;;;;7.65;3.30;;;;;;;;;;1742492;82;21121;-77
2022/06/05 05:04:32;;;;;;;5.17;3.42;;;;;;;;;;1741462;81;21077;-77
2022/06/05 05:07:00;;;;;;;4.75;2.75;;;;;;;;;;1734379;83;21564;-77
2022/06/05 05:09:27;;;;;;;3.80;2.80;;;;;;;;;;1717341;83;21050;-77
2022/06/05 05:11:53;;;;;;;4.28;2.90;;;;;;;;;;1705444;83;21086;-78
2022/06/05 05:14:19;;;;;;;3.92;2.85;;;;;;;;;;1705464;84;21066;-78
2022/06/05 05:16:46;;;;;;;4.15;2.83;;;;;;;;;;1705113;84;21499;-77
2022/06/05 05:19:12;;;;;;;4.35;2.95;;;;;;;;;;1727916;83;21047;-78
2022/06/05 05:21:39;;;;;;;4.22;3.22;;;;;;;;;;1734238;83;21151;-77
2022/06/05 05:24:07;;;;;;;5.53;3.58;;;;;;;;;;1734533;83;21025;-77
2022/06/05 05:26:35;;;;;;;5.42;3.85;;;;;;;;;;1734328;83;21072;-78
2022/06/05 05:29:01;;;;;;;4.50;3.30;;;;;;;;;;1734487;83;21044;-77
2022/06/05 05:31:29;;;;;;;4.60;3.50;;;;;;;;;;1734244;83;21025;-77
2022/06/05 05:33:56;;;;;;;5.08;3.45;;;;;;;;;;1734507;83;21349;-77
2022/06/05 05:36:23;;;;;;;5.33;4.03;;;;;;;;;;1726841;83;21024;-77
2022/06/05 05:44:18;;;;;;;7.62;3.33;;;;;;;;;;1725250;83;20977;-77
2022/06/05 05:46:44;;;;;;;5.00;3.65;;;;;;;;;;1734563;83;21017;-77
2022/06/05 05:49:10;;;;;;;5.28;3.70;;;;;;;;;;1734964;83;21492;-77
2022/06/05 05:51:36;;;;;;;6.45;3.65;;;;;;;;;;1734782;83;21017;-77
2022/06/05 05:54:03;;;;;;;5.15;3.90;;;;;;;;;;1737564;82;20995;-77
2022/06/05 05:56:29;;;;;;;5.28;4.20;;;;;;;;;;1738446;83;21103;-80
2022/06/05 05:58:55;;;;;;;6.75;4.12;;;;;;;;;;1737885;82;20969;-78
2022/06/05 06:01:23;;;;;;;8.25;4.50;;;;;;;;;;1703915;83;21037;-77
2022/06/05 06:03:51;;;;;;;6.92;4.03;;;;;;;;;;1730253;82;21060;-78
2022/06/05 06:06:19;;;;;;;6.47;4.50;;;;;;;;;;1734244;83;21090;-78
2022/06/05 06:08:46;;;;;;;7.80;4.35;;;;;;;;;;1705609;83;21105;-79
2022/06/05 06:11:12;;;;;;;4.85;4.22;;;;;;;;;;1734068;83;21551;-78
2022/06/05 06:13:40;;;;;;;4.92;3.40;;;;;;;;;;1734065;82;21018;-78
2022/06/05 06:16:07;;;;;;;6.62;4.20;;;;;;;;;;1733855;82;21137;-78
2022/06/05 06:18:33;;;;;;;5.85;4.40;;;;;;;;;;1710856;83;21103;-79
2022/06/05 06:20:59;;;;;;;4.87;3.50;;;;;;;;;;1701645;84;21051;-78
2022/06/05 06:23:26;;;;;;;4.80;3.90;;;;;;;;;;1701801;84;21034;-77
2022/06/05 06:25:52;;;;;;;4.67;3.40;;;;;;;;;;1701556;84;21067;-78
2022/06/05 06:28:19;;;;;;;5.12;3.65;;;;;;;;;;1704557;83;21525;-77
2022/06/05 06:30:46;;;;;;;6.03;4.08;;;;;;;;;;1704571;84;21154;-78
2022/06/05 06:33:12;;;;;;;7.60;4.60;;;;;;;;;;1706736;83;21530;-78
2022/06/05 06:35:38;;;;;;;7.10;4.87;;;;;;;;;;1734024;82;21006;-78
2022/06/05 06:38:04;;;;;;;7.62;5.05;;;;;;;;;;1733490;83;21553;-78
2022/06/05 06:40:30;;;;;;;6.28;4.87;;;;;;;;;;1704881;84;21079;-78
2022/06/05 06:42:57;;;;;;;6.45;4.70;;;;;;;;;;1724351;83;21072;-78
2022/06/05 06:45:23;;;;;;;8.00;4.83;;;;;;;;;;1733927;83;21539;-78
2022/06/05 06:47:49;;;;;;;7.37;5.15;;;;;;;;;;1733391;83;21080;-78
2022/06/05 06:50:16;;;;;;;8.20;5.15;;;;;;;;;;1734096;83;21064;-78
2022/06/05 06:52:42;;;;;;;10.28;5.85;;;;;;;;;;1734186;83;20973;-79
2022/06/05 06:55:15;;;;;;;7.62;4.95;;;;;;;;;;1735583;82;22159;-75
2022/06/05 06:57:43;;;;;;;8.10;5.53;;;;;;;;;;1737470;82;21006;-77
2022/06/05 07:00:10;;;;;;;9.40;6.33;;;;;;;;;;1736118;82;21115;-79
2022/06/05 07:02:36;;;;;;;10.25;6.28;;;;;;;;;;1705078;81;21076;-79
2022/06/05 07:05:02;;;;;;;11.08;6.05;;;;;;;;;;1734563;82;21012;-78
2022/06/05 07:07:28;;;;;;;7.78;4.72;;;;;;;;;;1741725;82;21589;-73
2022/06/05 07:09:54;;;;;;;6.97;5.50;;;;;;;;;;1741845;82;21001;-73
2022/06/05 07:13:46;;;;;;;8.28;6.03;;;;;;;;;;1799319;79;22840;-75
2022/06/05 07:16:13;;;;;;;12.53;8.60;;;;;;;;;;1757595;81;21064;-74
2022/06/05 07:18:41;;;;;;;10.80;7.65;;;;;;;;;;1757963;81;21115;-75
2022/06/05 07:21:11;;;;;;;9.63;7.17;;;;;;;;;;1758645;81;21153;-74
2022/06/05 07:23:38;;;;;;;12.75;8.13;;;;;;;;;;1758911;81;21060;-74
2022/06/05 07:26:06;;;;;;;10.65;6.87;;;;;;;;;;1758905;81;21063;-75
2022/06/05 07:28:32;;;;;;;9.43;6.90;;;;;;;;;;1758891;81;21122;-74
2022/06/05 07:31:00;;;;;;;9.88;6.97;;;;;;;;;;1758748;81;21097;-75
2022/06/05 07:33:27;;;;;;;10.43;5.80;;;;;;;;;;1758874;81;22077;-74
2022/06/05 07:35:59;;;;;;;8.43;5.62;;;;;;;;;;1758488;81;21052;-75
2022/06/05 07:38:25;;;;;;;6.03;4.57;;;;;;;;;;1759202;81;21024;-74
2022/06/05 07:40:53;;;;;;;6.35;3.62;;;;;;;;;;1758600;81;21075;-75
2022/06/05 07:43:21;;;;;;;4.37;3.15;;;;;;;;;;1758786;81;21099;-75
2022/06/05 07:45:47;;;;;;;4.75;3.55;;;;;;;;;;1758470;81;21622;-75
2022/06/05 07:48:14;;;;;;;4.08;3.40;;;;;;;;;;1758681;81;21064;-74
2022/06/05 07:54:26;;;;;;;4.20;3.58;;;;;;;;;;1758655;81;21036;-75
2022/06/05 07:55:53;;;;;;;3.80;3.40;;;;;;;;;;1758904;81;21111;-73
2022/06/05 07:58:19;;;;;;;3.95;3.00;;;;;;;;;;1758718;81;21064;-73
2022/06/05 08:00:45;;;;;;;5.03;2.90;;;;;;;;;;1758774;81;21004;-73
2022/06/05 08:03:13;;;;;;;6.50;3.30;;;;;;;;;;1758414;80;21134;-73
2022/06/05 08:05:39;;;;;;;4.97;3.33;;;;;;;;;;1758900;81;21044;-73
2022/06/05 08:08:06;;;;;;;6.10;3.15;;;;;;;;;;1758686;81;21040;-73
2022/06/05 08:10:33;;;;;;;5.58;3.20;;;;;;;;;;1758640;81;21767;-74
2022/06/05 08:13:00;;;;;;;4.30;2.90;;;;;;;;;;1755796;81;21064;-74
2022/06/05 08:15:27;;;;;;;4.37;3.15;;;;;;;;;;1754693;82;21572;-74
2022/06/05 08:17:54;;;;;;;3.70;3.08;;;;;;;;;;1754430;82;21083;-74
2022/06/05 08:20:20;;;;;;;4.75;2.90;;;;;;;;;;1754431;82;21099;-75
2022/06/05 08:22:47;;;;;;;4.22;3.50;;;;;;;;;;1754436;82;21068;-73
2022/06/05 08:25:14;;;;;;;5.08;3.40;;;;;;;;;;1753817;82;21009;-74
2022/06/05 08:27:40;;;;;;;4.17;3.20;;;;;;;;;;1753927;82;21020;-74
2022/06/05 08:30:07;;;;;;;4.05;2.90;;;;;;;;;;1754060;82;21053;-74
2022/06/05 08:32:33;;;;;;;5.72;3.40;;;;;;;;;;1754304;82;21000;-74
2022/06/05 08:35:01;;;;;;;4.35;3.35;;;;;;;;;;1754254;82;21570;-74
2022/06/05 08:43:01;;;;;;;5.50;3.10;;;;;;;;;;1754194;82;21017;-74
2022/06/05 08:45:29;;;;;;;5.00;3.58;;;;;;;;;;1753770;82;21517;-74
2022/06/05 08:48:02;;;;;;;4.95;3.37;;;;;;;;;;1754143;82;21029;-75
2022/06/05 08:50:28;;;;;;;;;;;;;;;;;;1755717;82;21036;-74
2022/06/05 08:52:58;;;;;;;5.78;4.05;;;;;;;;;;1753805;82;20140;-75
2022/06/05 08:55:29;;;;;;;5.70;4.00;;;;;;;;;;1753829;81;21049;-74
2022/06/05 08:57:57;;;;;;;5.53;4.12;;;;;;;;;;1753365;81;21107;-74
2022/06/05 09:00:25;;;;;;;4.62;4.05;;;;;;;;;;1753504;81;21068;-74
2022/06/05 09:02:56;;;;;;;5.62;4.12;;;;;;;;;;1753562;80;21592;-74
2022/06/05 09:05:25;;;;;;;6.12;3.92;;;;;;;;;;1753356;82;21053;-74
2022/06/05 09:07:52;;;;;;;4.45;3.58;;;;;;;;;;1753513;82;21092;-75
2022/06/05 09:10:20;;;;;;;5.10;3.87;;;;;;;;;;1753670;82;21491;-74
2022/06/05 09:12:55;;;;;;;6.47;3.98;;;;;;;;;;1750741;81;22050;-74
2022/06/05 09:15:33;;;;;;;4.37;3.30;;;;;;;;;;1742808;80;21049;-75
2022/06/05 09:18:01;;;;;;;3.92;3.27;;;;;;;;;;1748171;82;21036;-74
2022/06/05 09:20:28;;;;;;;5.45;2.83;;;;;;;;;;1748051;81;21017;-74
2022/06/05 09:22:59;;;;;;;5.33;2.70;;;;;;;;;;1747976;81;21005;-75
2022/06/05 09:25:28;;;;;;;4.15;2.77;;;;;;;;;;1747938;81;21045;-75
2022/06/05 09:28:12;;;;;;;5.47;2.70;;;;;;;;;;1748123;82;21001;-74
2022/06/05 09:30:47;;;;;;;3.20;2.67;;;;;;;;;;1747901;82;21068;-75
2022/06/05 09:33:23;;;;;;;3.37;2.72;;;;;;;;;;1748094;81;21120;-75
2022/06/05 09:35:54;;;;;;;3.60;2.72;;;;;;;;;;1748078;81;21028;-75
2022/06/05 09:38:24;;;;;;;4.42;2.90;;;;;;;;;;1747930;82;21037;-75
2022/06/05 09:40:56;;;;;;;3.45;2.58;;;;;;;;;;1747238;81;21080;-75
2022/06/05 09:43:27;;;;;;;3.58;2.52;;;;;;;;;;1748350;81;21533;-75
2022/06/05 09:45:57;;;;;;;3.50;2.72;;;;;;;;;;1748339;81;21064;-75
2022/06/05 09:48:28;;;;;;;2.92;2.50;;;;;;;;;;1748218;81;21052;-74
2022/06/05 09:50:54;;;;;;;2.70;2.30;;;;;;;;;;1747974;81;21084;-73
2022/06/05 09:53:25;;;;;;;2.92;2.37;;;;;;;;;;1748305;82;21120;-74
2022/06/05 09:55:56;;;;;;;2.95;2.55;;;;;;;;;;1748033;81;21142;-74
2022/06/05 09:58:24;;;;;;;3.02;2.50;;;;;;;;;;1748132;81;21107;-75
2022/06/05 10:00:53;;;;;;;3.52;2.85;;;;;;;;;;1747734;81;21072;-75
2022/06/05 10:03:20;;;;;;;4.65;2.70;;;;;;;;;;1747773;80;21143;-75
2022/06/05 10:06:05;;;;;;;4.17;2.60;;;;;;;;;;1748235;81;21053;-75
2022/06/05 10:08:34;;;;;;;3.37;2.72;;;;;;;;;;1747996;82;21073;-74
2022/06/05 10:11:03;;;;;;;3.47;2.70;;;;;;;;;;1747933;81;21073;-74
2022/06/05 10:13:50;;;;;;;4.45;2.58;;;;;;;;;;1747749;81;21088;-75
2022/06/05 10:16:36;;;;;;;2.80;2.40;;;;;;;;;;1747882;82;21104;-74
2022/06/05 10:19:14;;;;;;;3.25;2.60;;;;;;;;;;1748007;81;22075;-75
2022/06/05 10:21:41;;;;;;;3.02;2.40;;;;;;;;;;1748340;81;21049;-74
2022/06/05 10:24:09;;;;;;;2.85;2.22;;;;;;;;;;1748257;82;21088;-74
2022/06/05 10:26:41;;;;;;;3.37;2.45;;;;;;;;;;1747991;82;21080;-74
2022/06/05 10:29:12;;;;;;;3.27;2.55;;;;;;;;;;1747532;81;21085;-75
2022/06/05 10:31:40;;;;;;;3.12;2.45;;;;;;;;;;1747634;81;21068;-75
2022/06/05 10:34:13;;;;;;;3.02;2.20;;;;;;;;;;1747867;82;21548;-75
2022/06/05 10:36:58;;;;;;;2.80;2.50;;;;;;;;;;1747887;82;21084;-74
2022/06/05 10:39:30;;;;;;;3.10;2.20;;;;;;;;;;1748154;82;21068;-73
2022/06/05 10:41:58;;;;;;;2.95;2.33;;;;;;;;;;1746544;82;21072;-75
2022/06/05 10:44:34;;;;;;;3.00;2.40;;;;;;;;;;1743734;81;20997;-72
2022/06/05 10:47:02;;;;;;;2.45;2.20;;;;;;;;;;1744481;82;21013;-75
2022/06/05 10:49:33;;;;;;;4.05;2.50;;;;;;;;;;1746732;82;21153;-75
2022/06/05 10:52:16;;;;;;;6.05;2.20;;;;;;;;;;1744143;81;21034;-75
2022/06/05 10:54:50;;;;;;;4.62;2.67;;;;;;;;;;1742534;82;21081;-75
2022/06/05 10:57:16;;;;;;;;;;;;;;;;;;1750181;82;20998;-75
2022/06/05 10:59:44;;;;;;;3.45;2.40;;;;;;;;;;1739464;81;20120;-75
2022/06/05 11:02:18;;;;;;;3.80;2.30;;;;;;;;;;1748095;82;21127;-75
2022/06/05 11:04:53;;;;;;;4.35;2.47;;;;;;;;;;1744085;82;21024;-75
2022/06/05 11:07:24;;;;;;;2.80;2.10;;;;;;;;;;1724319;82;21044;-75
2022/06/05 11:09:52;;;;;;;3.65;2.10;;;;;;;;;;1723667;82;21501;-75
2022/06/05 11:15:24;;;;;;;2.37;2.17;;;;;;;;;;1745389;82;21025;-75
2022/06/05 11:17:53;;;;;;;3.02;2.30;;;;;;;;;;1742629;81;21053;-75
2022/06/05 11:20:21;;;;;;;2.83;2.30;;;;;;;;;;1744134;81;21053;-75
2022/06/05 11:22:59;;;;;;;4.30;2.55;;;;;;;;;;1747916;82;21056;-77
2022/06/05 11:25:32;;;;;;;2.98;2.20;;;;;;;;;;1743154;81;21048;-75
2022/06/05 11:28:03;;;;;;;2.25;2.02;;;;;;;;;;1739620;82;21022;-75
2022/06/05 11:30:31;;;;;;;2.33;2.10;;;;;;;;;;1739625;81;21600;-75
2022/06/05 11:32:59;;;;;;;2.47;2.20;;;;;;;;;;1749652;81;21064;-75
2022/06/05 11:35:27;;;;;;;2.72;2.10;;;;;;;;;;1742557;81;21054;-75
2022/06/05 11:37:55;;;;;;;2.35;2.08;;;;;;;;;;1716696;83;21611;-75
2022/06/05 11:40:40;;;;;;;4.72;2.50;;;;;;;;;;1731217;82;20972;-75
2022/06/05 11:43:26;;;;;;;2.62;2.08;;;;;;;;;;1746373;82;21066;-75
2022/06/05 11:46:03;;;;;;;3.25;2.20;;;;;;;;;;1746523;82;21039;-76
2022/06/05 11:48:32;;;;;;;2.75;2.10;;;;;;;;;;1746243;82;21043;-76
2022/06/05 11:51:00;;;;;;;3.12;2.20;;;;;;;;;;1747507;81;20993;-75
2022/06/05 11:53:28;;;;;;;2.15;1.92;;;;;;;;;;1747551;82;21556;-76
2022/06/05 11:55:56;;;;;;;2.35;2.00;;;;;;;;;;1746264;82;21068;-75
2022/06/05 11:58:27;;;;;;;2.50;2.00;;;;;;;;;;1745457;81;20977;-71
2022/06/05 12:00:57;;;;;;;3.50;2.30;;;;;;;;;;1733307;82;21041;-74
2022/06/05 12:03:35;;;;;;;2.02;1.80;;;;;;;;;;1721116;82;21073;-74
2022/06/05 12:06:02;;;;;;;2.47;2.20;;;;;;;;;;1741355;82;22119;-74
2022/06/05 12:08:36;;;;;;;2.30;2.10;;;;;;;;;;1741973;82;21581;-75
2022/06/05 12:11:21;;;;;;;2.47;2.08;;;;;;;;;;1742112;82;21037;-75
2022/06/05 12:13:51;;;;;;;3.35;2.20;;;;;;;;;;1748335;81;21064;-74
2022/06/05 12:16:25;;;;;;;2.10;1.90;;;;;;;;;;1755637;82;21115;-75
2022/06/05 12:18:53;;;;;;;2.33;1.98;;;;;;;;;;1755692;82;21067;-74
2022/06/05 12:21:24;;;;;;;2.52;2.00;;;;;;;;;;1754732;82;21075;-74
2022/06/05 12:23:55;;;;;;;4.40;2.20;;;;;;;;;;1755883;82;20997;-75
2022/06/05 12:26:39;;;;;;;2.65;2.12;;;;;;;;;;1755596;82;21068;-74
2022/06/05 12:29:10;;;;;;;2.33;2.10;;;;;;;;;;1756138;82;21036;-74
2022/06/05 12:31:41;;;;;;;2.15;1.90;;;;;;;;;;1755728;82;21534;-75
2022/06/05 12:34:14;;;;;;;3.25;2.12;;;;;;;;;;1755879;82;21571;-75
2022/06/05 12:36:41;;;;;;;3.15;2.22;;;;;;;;;;1755570;82;21071;-75
2022/06/05 12:39:18;;;;;;;3.90;2.10;;;;;;;;;;1755815;82;21087;-75
2022/06/05 12:42:04;;;;;;;2.20;1.98;;;;;;;;;;1755764;82;21119;-74
2022/06/05 12:44:32;;;;;;;2.62;1.95;;;;;;;;;;1756105;82;21063;-75
2022/06/05 12:47:07;;;;;;;2.65;1.98;;;;;;;;;;1756009;82;21515;-75
2022/06/05 12:49:41;;;;;;;2.55;1.92;;;;;;;;;;1710256;82;21524;-75
2022/06/05 12:52:27;;;;;;;2.75;1.87;;;;;;;;;;1755715;82;21529;-75
2022/06/05 12:55:07;;;;;;;2.25;2.05;;;;;;;;;;1756079;82;21071;-75
2022/06/05 12:57:40;;;;;;;3.30;2.08;;;;;;;;;;1755676;82;21040;-75
2022/06/05 13:00:08;;;;;;;2.42;2.22;;;;;;;;;;1755874;82;21084;-75
2022/06/05 13:02:39;;;;;;;3.00;2.08;;;;;;;;;;1755598;80;21127;-74
2022/06/05 13:05:08;;;;;;;2.30;2.10;;;;;;;;;;1755795;82;21095;-75
2022/06/05 13:07:39;;;;;;;2.50;2.10;;;;;;;;;;1755733;82;20993;-75
2022/06/05 13:10:23;;;;;;;2.62;2.12;;;;;;;;;;1755858;82;21603;-74
2022/06/05 13:12:51;;;;;;;3.20;2.42;;;;;;;;;;1755627;82;21060;-74
2022/06/05 13:15:21;;;;;;;4.50;2.70;;;;;;;;;;1742077;81;21065;-75
2022/06/05 13:18:03;;;;;;;3.30;2.40;;;;;;;;;;1742028;82;21075;-75
2022/06/05 13:20:41;;;;;;;3.35;2.42;;;;;;;;;;1741820;82;21076;-75
2022/06/05 13:23:15;;;;;;;2.33;2.00;;;;;;;;;;1741893;82;21060;-75
2022/06/05 13:25:56;;;;;;;2.47;2.00;;;;;;;;;;1741905;82;21060;-75
2022/06/05 13:28:33;;;;;;;2.65;1.98;;;;;;;;;;1741942;82;21088;-75
2022/06/05 13:31:18;;;;;;;4.33;1.92;;;;;;;;;;1741820;82;21064;-74
2022/06/05 13:33:51;;;;;;;2.60;2.10;;;;;;;;;;1742026;82;21045;-74
2022/06/05 13:36:25;;;;;;;2.05;1.85;;;;;;;;;;1741739;82;21076;-74
2022/06/05 13:38:53;;;;;;;3.15;2.37;;;;;;;;;;1742011;82;21020;-74
2022/06/05 13:41:24;;;;;;;4.12;2.00;;;;;;;;;;1741900;82;21045;-75
2022/06/05 13:43:52;;;;;;;2.47;2.00;;;;;;;;;;1742145;82;21119;-74
2022/06/05 13:46:23;;;;;;;2.37;1.87;;;;;;;;;;1742006;82;21001;-75
2022/06/05 13:48:57;;;;;;;2.20;1.92;;;;;;;;;;1741729;82;21064;-75
2022/06/05 13:51:25;;;;;;;2.45;2.00;;;;;;;;;;1742049;82;21157;-75
2022/06/05 13:53:54;;;;;;;2.37;2.12;;;;;;;;;;1721272;82;21072;-75
2022/06/05 13:56:22;;;;;;;2.20;2.00;;;;;;;;;;1742062;82;21005;-75
2022/06/05 13:58:59;;;;;;;4.47;2.08;;;;;;;;;;1742018;82;21009;-75
2022/06/05 14:01:40;;;;;;;2.52;2.08;;;;;;;;;;1741926;82;21045;-74
2022/06/05 14:04:23;;;;;;;2.30;2.08;;;;;;;;;;1742150;82;21025;-74
2022/06/05 14:06:51;;;;;;;3.12;2.25;;;;;;;;;;1740887;82;21080;-73
2022/06/05 14:09:31;;;;;;;2.58;1.92;;;;;;;;;;1741741;82;21033;-74
2022/06/05 14:11:57;;;;;;;2.08;1.87;;;;;;;;;;1741753;82;21084;-74
2022/06/05 14:14:37;;;;;;;2.95;2.12;;;;;;;;;;1741904;81;21112;-74
2022/06/05 14:17:04;;;;;;;2.75;2.22;;;;;;;;;;1741798;82;21053;-74
2022/06/05 14:19:32;;;;;;;2.37;2.17;;;;;;;;;;1741762;82;21029;-74
2022/06/05 14:22:00;;;;;;;2.25;2.02;;;;;;;;;;1742059;82;21041;-74
2022/06/05 14:24:28;;;;;;;2.70;2.22;;;;;;;;;;1741137;82;21096;-74
2022/06/05 14:26:56;;;;;;;4.53;2.08;;;;;;;;;;1741701;82;21041;-74
2022/06/05 14:29:24;;;;;;;2.45;2.10;;;;;;;;;;1742093;82;21588;-74
2022/06/05 14:31:57;;;;;;;4.17;2.10;;;;;;;;;;1741966;82;21013;-74
2022/06/05 14:34:25;;;;;;;2.62;1.92;;;;;;;;;;1741941;82;21017;-74
2022/06/05 14:36:53;;;;;;;3.75;3.00;;;;;;;;;;1720841;82;21096;-74
2022/06/05 14:39:30;;;;;;;2.98;2.52;;;;;;;;;;1741818;82;21595;-74
2022/06/05 14:41:58;;;;;;;3.08;2.20;;;;;;;;;;1740507;82;21048;-73
2022/06/05 14:44:41;;;;;;;2.87;1.87;;;;;;;;;;1741943;82;20997;-75
2022/06/05 14:47:26;;;;;;;2.50;2.00;;;;;;;;;;1740829;82;21188;-74
2022/06/05 14:49:54;;;;;;;3.65;1.92;;;;;;;;;;1741811;82;21660;-75
2022/06/05 14:52:24;;;;;;;2.30;2.02;;;;;;;;;;1741712;82;21040;-74
2022/06/05 14:57:51;;;;;;;3.10;2.00;;;;;;;;;;1741785;82;21560;-75
2022/06/05 15:00:25;;;;;;;3.08;1.90;;;;;;;;;;1741808;82;21682;-74
2022/06/05 15:02:54;;;;;;;2.52;2.25;;;;;;;;;;1741511;81;21092;-74
2022/06/05 15:05:28;;;;;;;2.47;2.10;;;;;;;;;;1741976;82;20997;-75
2022/06/05 15:07:59;;;;;;;3.55;2.35;;;;;;;;;;1741835;82;20985;-74
2022/06/05 15:10:40;;;;;;;2.52;2.08;;;;;;;;;;1741085;82;21544;-75
2022/06/05 15:13:20;;;;;;;3.40;2.35;;;;;;;;;;1741510;82;21105;-75
2022/06/05 15:15:48;;;;;;;4.42;2.08;;;;;;;;;;1741886;81;21556;-74
2022/06/05 15:18:14;;;;;;;2.58;2.17;;;;;;;;;;1740679;82;21061;-74
2022/06/05 15:21:02;;;;;;;2.87;2.20;;;;;;;;;;1742011;82;21603;-75
2022/06/05 15:23:38;;;;;;;2.65;2.05;;;;;;;;;;1741587;82;21049;-75
2022/06/05 15:26:17;;;;;;;2.60;2.10;;;;;;;;;;1741933;82;20993;-74